createdAt,value
2017-08-29T00:02:45.885Z,3.60
2017-08-29T00:07:47.827Z,5.37
2017-08-29T00:12:50.188Z,6.87
2017-08-29T00:17:52.144Z,10.50
2017-08-29T00:22:54.964Z,8.77
2017-08-29T00:27:57.548Z,6.90
2017-08-29T00:32:59.496Z,6.20
2017-08-29T00:38:02.210Z,8.40
2017-08-29T00:43:04.621Z,4.90
2017-08-29T00:48:07.247Z,6.63
2017-08-29T00:53:09.605Z,6.30
2017-08-29T00:58:11.691Z,4.43
2017-08-29T01:03:14.345Z,3.90
2017-08-29T01:08:16.863Z,5.93
2017-08-29T01:13:19.280Z,7.93
2017-08-29T01:18:22.819Z,5.90
2017-08-29T01:23:25.960Z,7.43
2017-08-29T01:28:28.815Z,7.97
2017-08-29T01:33:30.862Z,4.47
2017-08-29T01:38:33.654Z,4.67
2017-08-29T01:43:35.678Z,5.77
2017-08-29T01:48:38.499Z,5.77
2017-08-29T01:53:42.399Z,5.40
2017-08-29T01:58:45.122Z,4.90
2017-08-29T02:03:47.219Z,4.73
2017-08-29T02:08:49.883Z,5.23
2017-08-29T02:13:52.609Z,4.80
2017-08-29T02:18:54.625Z,5.93
2017-08-29T02:23:57.380Z,7.73
2017-08-29T02:28:59.298Z,9.93
2017-08-29T02:34:01.891Z,4.83
2017-08-29T02:39:03.904Z,9.97
2017-08-29T02:44:06.439Z,4.70
2017-08-29T02:49:08.888Z,6.57
2017-08-29T02:54:11.997Z,5.70
2017-08-29T02:59:13.959Z,14.03
2017-08-29T03:04:16.081Z,5.30
2017-08-29T03:09:18.458Z,5.13
2017-08-29T03:14:21.143Z,4.50
2017-08-29T03:19:23.714Z,6.33
2017-08-29T03:24:26.376Z,5.97
2017-08-29T03:29:28.669Z,7.00
2017-08-29T03:34:31.490Z,5.13
2017-08-29T03:39:33.833Z,8.13
2017-08-29T03:44:36.514Z,8.10
2017-08-29T03:49:39.159Z,6.10
2017-08-29T03:54:43.974Z,5.80
2017-08-29T03:59:49.360Z,9.60
2017-08-29T04:04:52.333Z,8.40
2017-08-29T04:09:54.490Z,7.60
2017-08-29T04:14:57.243Z,7.40
2017-08-29T04:20:00.041Z,6.20
2017-08-29T04:25:03.414Z,7.70
2017-08-29T04:30:05.857Z,6.03
2017-08-29T04:35:08.453Z,10.90
2017-08-29T04:40:11.152Z,12.40
2017-08-29T04:45:13.783Z,7.67
2017-08-29T04:50:16.267Z,12.53
2017-08-29T04:55:18.303Z,5.37
2017-08-29T05:00:20.371Z,7.40
2017-08-29T05:05:22.817Z,6.00
2017-08-29T05:10:28.932Z,11.77
2017-08-29T05:15:31.466Z,8.90
2017-08-29T05:20:33.665Z,6.80
2017-08-29T05:25:36.041Z,6.93
2017-08-29T05:30:37.976Z,10.27
2017-08-29T05:35:40.038Z,12.13
2017-08-29T05:40:42.122Z,8.60
2017-08-29T05:45:44.149Z,8.33
2017-08-29T05:50:46.642Z,10.00
2017-08-29T05:55:48.845Z,5.10
2017-08-29T06:00:51.018Z,9.00
2017-08-29T06:05:53.109Z,5.50
2017-08-29T06:10:55.264Z,13.50
2017-08-29T06:15:57.405Z,7.50
2017-08-29T06:20:59.929Z,12.63
2017-08-29T06:26:02.005Z,9.47
2017-08-29T06:31:12.407Z,10.70
2017-08-29T06:36:15.642Z,6.70
2017-08-29T06:41:18.856Z,8.73
2017-08-29T06:46:21.065Z,11.63
2017-08-29T06:51:23.419Z,5.80
2017-08-29T06:56:26.527Z,15.10
2017-08-29T07:01:30.588Z,15.73
2017-08-29T07:06:35.268Z,6.70
2017-08-29T07:11:43.373Z,6.90
2017-08-29T07:16:48.151Z,6.30
2017-08-29T07:21:50.934Z,8.90
2017-08-29T07:26:53.233Z,11.90
2017-08-29T07:32:01.385Z,4.87
2017-08-29T07:37:03.557Z,10.60
2017-08-29T07:42:06.693Z,5.30
2017-08-29T07:47:09.892Z,14.53
2017-08-29T07:52:12.755Z,8.43
2017-08-29T07:57:21.932Z,7.23
2017-08-29T08:02:29.770Z,5.87
2017-08-29T08:07:37.881Z,8.33
2017-08-29T08:12:46.449Z,6.50
2017-08-29T08:17:49.308Z,7.97
2017-08-29T08:22:52.798Z,9.60
2017-08-29T08:28:02.364Z,15.73
2017-08-29T08:33:04.776Z,17.20
2017-08-29T08:38:07.313Z,13.67
2017-08-29T08:43:10.556Z,9.30
2017-08-29T08:48:12.523Z,9.97
2017-08-29T08:53:14.541Z,9.03
2017-08-29T08:58:16.516Z,12.00
2017-08-29T09:03:18.509Z,8.80
2017-08-29T09:08:20.485Z,9.33
2017-08-29T09:13:22.416Z,10.13
2017-08-29T09:18:24.348Z,11.03
2017-08-29T09:23:26.332Z,13.07
2017-08-29T09:28:28.253Z,10.23
2017-08-29T09:33:30.265Z,13.83
2017-08-29T09:38:32.296Z,8.60
2017-08-29T09:43:35.012Z,14.40
2017-08-29T09:48:37.228Z,12.70
2017-08-29T09:53:39.230Z,10.53
2017-08-29T09:58:41.255Z,13.47
2017-08-29T10:03:43.260Z,17.53
2017-08-29T10:08:45.627Z,12.63
2017-08-29T10:13:47.651Z,10.33
2017-08-29T10:18:49.634Z,14.70
2017-08-29T10:23:51.623Z,9.30
2017-08-29T10:28:53.574Z,15.17
2017-08-29T10:33:55.531Z,13.57
2017-08-29T10:38:57.577Z,12.10
2017-08-29T10:43:59.542Z,16.87
2017-08-29T10:49:01.499Z,14.43
2017-08-29T10:54:03.793Z,9.90
2017-08-29T10:59:06.023Z,9.90
2017-08-29T11:04:08.236Z,19.27
2017-08-29T11:09:10.423Z,19.80
2017-08-29T11:14:12.387Z,11.17
2017-08-29T11:19:16.464Z,13.40
2017-08-29T11:24:21.783Z,17.67
2017-08-29T11:29:28.938Z,15.83
2017-08-29T11:34:31.256Z,13.33
2017-08-29T11:39:33.612Z,12.83
2017-08-29T11:44:35.923Z,15.47
2017-08-29T11:49:37.952Z,14.10
2017-08-29T11:54:40.052Z,18.40
2017-08-29T11:59:42.151Z,15.13
2017-08-29T12:04:44.537Z,19.07
2017-08-29T12:09:46.511Z,19.50
2017-08-29T12:14:48.418Z,19.87
2017-08-29T12:19:50.405Z,19.57
2017-08-29T12:24:52.393Z,22.03
2017-08-29T12:29:54.362Z,21.03
2017-08-29T12:34:56.344Z,14.20
2017-08-29T12:39:58.320Z,11.70
2017-08-29T12:45:00.316Z,12.43
2017-08-29T12:50:02.273Z,16.37
2017-08-29T12:55:04.278Z,11.27
2017-08-29T13:00:06.312Z,15.53
2017-08-29T13:05:08.315Z,16.33
2017-08-29T13:10:10.255Z,14.43
2017-08-29T13:15:12.241Z,13.40
2017-08-29T13:20:14.226Z,10.13
2017-08-29T13:25:16.896Z,14.77
2017-08-29T13:30:18.891Z,10.03
2017-08-29T13:35:21.019Z,8.87
2017-08-29T13:40:23.367Z,9.70
2017-08-29T13:45:25.779Z,9.30
2017-08-29T13:50:27.770Z,16.97
2017-08-29T13:55:33.887Z,14.20
2017-08-29T14:00:35.932Z,8.33
2017-08-29T14:05:38.270Z,14.77
2017-08-29T14:10:41.129Z,7.83
2017-08-29T14:15:43.091Z,6.70
2017-08-29T14:20:45.070Z,12.63
2017-08-29T14:25:47.025Z,6.83
2017-08-29T14:30:48.971Z,5.73
2017-08-29T14:35:50.996Z,8.83
2017-08-29T14:40:52.935Z,8.03
2017-08-29T14:45:54.877Z,13.30
2017-08-29T14:50:56.927Z,14.80
2017-08-29T14:55:59.026Z,13.33
2017-08-29T15:01:01.079Z,6.20
2017-08-29T15:06:03.079Z,7.70
2017-08-29T15:11:05.121Z,6.97
2017-08-29T15:16:07.095Z,8.83
2017-08-29T15:21:09.075Z,7.63
2017-08-29T15:26:11.344Z,7.73
2017-08-29T15:31:13.326Z,7.13
2017-08-29T15:36:15.372Z,10.53
2017-08-29T15:41:17.685Z,9.43
2017-08-29T15:46:19.672Z,9.60
2017-08-29T15:51:21.855Z,12.43
2017-08-29T15:56:23.798Z,9.67
2017-08-29T16:01:25.743Z,13.70
2017-08-29T16:06:27.969Z,8.00
2017-08-29T16:11:30.013Z,14.50
2017-08-29T16:16:32.100Z,8.80
2017-08-29T16:21:34.581Z,10.10
2017-08-29T16:26:36.898Z,14.00
2017-08-29T16:31:39.249Z,9.93
2017-08-29T16:36:41.175Z,13.33
2017-08-29T16:41:43.230Z,11.50
2017-08-29T16:46:45.304Z,7.87
2017-08-29T16:51:47.250Z,16.60
2017-08-29T16:56:51.343Z,12.40
2017-08-29T17:01:53.311Z,16.97
2017-08-29T17:06:55.303Z,15.47
2017-08-29T17:11:57.292Z,19.13
2017-08-29T17:16:59.265Z,20.00
2017-08-29T17:22:01.601Z,16.87
2017-08-29T17:27:04.028Z,11.57
2017-08-29T17:32:05.972Z,14.60
2017-08-29T17:37:10.043Z,18.30
2017-08-29T17:42:12.198Z,27.80
2017-08-29T17:47:14.397Z,42.07
2017-08-29T17:52:16.333Z,33.83
2017-08-29T17:57:18.523Z,14.07
2017-08-29T18:02:20.948Z,27.87
2017-08-29T18:07:23.539Z,25.17
2017-08-29T18:12:25.843Z,29.13
2017-08-29T18:17:28.118Z,17.93
2017-08-29T18:22:30.477Z,11.73
2017-08-29T18:27:36.116Z,15.87
2017-08-29T18:32:38.508Z,26.13
2017-08-29T18:37:40.835Z,28.13
2017-08-29T18:42:43.348Z,25.33
2017-08-29T18:47:45.456Z,18.53
2017-08-29T18:52:47.693Z,18.47
2017-08-29T18:57:49.710Z,22.30
2017-08-29T19:02:51.705Z,25.67
2017-08-29T19:07:54.928Z,29.40
2017-08-29T19:12:58.010Z,21.50
2017-08-29T19:18:01.368Z,29.40
2017-08-29T19:23:04.669Z,20.70
2017-08-29T19:28:07.912Z,22.93
2017-08-29T19:33:11.036Z,22.43
2017-08-29T19:38:14.256Z,29.33
2017-08-29T19:43:17.494Z,20.50
2017-08-29T19:48:21.619Z,24.67
2017-08-29T19:53:24.932Z,20.00
2017-08-29T19:58:35.758Z,21.63
2017-08-29T20:03:37.931Z,24.50
2017-08-29T20:08:40.431Z,20.67
2017-08-29T20:13:42.550Z,23.90
2017-08-29T20:18:45.198Z,24.73
2017-08-29T20:23:47.275Z,28.17
2017-08-29T20:28:49.775Z,23.77
2017-08-29T20:33:51.840Z,22.17
2017-08-29T20:38:55.837Z,22.73
2017-08-29T20:43:58.024Z,30.90
2017-08-29T20:49:01.876Z,28.83
2017-08-29T20:54:04.264Z,31.03
2017-08-29T20:59:06.386Z,35.97
2017-08-29T21:04:08.322Z,27.07
2017-08-29T21:09:10.254Z,22.73
2017-08-29T21:14:12.202Z,25.17
2017-08-29T21:19:14.280Z,32.13
2017-08-29T21:24:16.329Z,24.23
2017-08-29T21:29:18.323Z,25.50
2017-08-29T21:34:20.326Z,29.20
2017-08-29T21:39:22.251Z,31.17
2017-08-29T21:44:24.163Z,26.50
2017-08-29T21:49:26.081Z,33.83
2017-08-29T21:54:28.068Z,31.00
2017-08-29T21:59:30.048Z,30.67
2017-08-29T22:04:32.066Z,43.13
2017-08-29T22:09:34.217Z,29.53
2017-08-29T22:14:36.594Z,28.87
2017-08-29T22:19:38.595Z,34.10
2017-08-29T22:24:40.573Z,36.00
2017-08-29T22:29:44.142Z,26.20
2017-08-29T22:34:46.143Z,28.33
2017-08-29T22:39:48.085Z,25.80
2017-08-29T22:44:50.185Z,31.53
2017-08-29T22:49:52.178Z,42.73
2017-08-29T22:54:54.704Z,27.03
2017-08-29T22:59:57.322Z,26.60
2017-08-29T23:04:59.733Z,28.10
2017-08-29T23:10:02.413Z,31.27
2017-08-29T23:15:05.190Z,25.03
2017-08-29T23:20:07.749Z,31.43
2017-08-29T23:25:09.686Z,33.67
2017-08-29T23:30:11.641Z,30.93
2017-08-29T23:35:13.569Z,30.00
2017-08-29T23:40:17.092Z,29.40
2017-08-29T23:45:19.676Z,29.73
2017-08-29T23:50:23.483Z,29.77
2017-08-29T23:55:26.169Z,38.53
